sensor_id;sensor_type;location;lat;lon;timestamp;P1;durP1;ratioP1;P2;durP2;ratioP2
20026;SDS011;10174;42.688;23.344;2022-12-29T00:01:29;49.00;;;23.08;;
20026;SDS011;10174;42.688;23.344;2022-12-29T00:03:56;50.95;;;24.35;;
20026;SDS011;10174;42.688;23.344;2022-12-29T00:06:21;49.75;;;23.45;;
20026;SDS011;10174;42.688;23.344;2022-12-29T00:08:47;52.30;;;25.70;;
20026;SDS011;10174;42.688;23.344;2022-12-29T00:11:14;55.97;;;27.52;;
20026;SDS011;10174;42.688;23.344;2022-12-29T00:13:41;49.72;;;26.15;;
20026;SDS011;10174;42.688;23.344;2022-12-29T00:16:25;51.72;;;24.75;;
20026;SDS011;10174;42.688;23.344;2022-12-29T00:18:51;50.92;;;25.50;;
20026;SDS011;10174;42.688;23.344;2022-12-29T00:21:17;53.67;;;25.95;;
20026;SDS011;10174;42.688;23.344;2022-12-29T00:24:03;52.88;;;26.55;;
20026;SDS011;10174;42.688;23.344;2022-12-29T00:26:58;65.28;;;27.30;;
20026;SDS011;10174;42.688;23.344;2022-12-29T00:29:50;55.78;;;26.90;;
20026;SDS011;10174;42.688;23.344;2022-12-29T00:32:34;69.85;;;32.17;;
20026;SDS011;10174;42.688;23.344;2022-12-29T00:35:23;65.68;;;31.17;;
20026;SDS011;10174;42.688;23.344;2022-12-29T00:37:53;62.80;;;29.15;;
20026;SDS011;10174;42.688;23.344;2022-12-29T00:40:40;65.03;;;29.60;;
20026;SDS011;10174;42.688;23.344;2022-12-29T00:43:25;56.40;;;28.42;;
20026;SDS011;10174;42.688;23.344;2022-12-29T00:46:08;61.30;;;28.48;;
20026;SDS011;10174;42.688;23.344;2022-12-29T00:48:34;56.80;;;28.67;;
20026;SDS011;10174;42.688;23.344;2022-12-29T00:51:18;59.72;;;28.77;;
20026;SDS011;10174;42.688;23.344;2022-12-29T00:53:43;62.00;;;29.95;;
20026;SDS011;10174;42.688;23.344;2022-12-29T00:56:09;66.50;;;30.17;;
20026;SDS011;10174;42.688;23.344;2022-12-29T00:58:34;58.72;;;28.88;;
20026;SDS011;10174;42.688;23.344;2022-12-29T01:01:06;59.35;;;27.92;;
20026;SDS011;10174;42.688;23.344;2022-12-29T01:03:33;58.58;;;28.65;;
20026;SDS011;10174;42.688;23.344;2022-12-29T01:06:01;64.00;;;29.10;;
20026;SDS011;10174;42.688;23.344;2022-12-29T01:08:30;58.70;;;29.08;;
20026;SDS011;10174;42.688;23.344;2022-12-29T01:13:32;58.88;;;29.35;;
20026;SDS011;10174;42.688;23.344;2022-12-29T01:15:58;56.85;;;27.95;;
20026;SDS011;10174;42.688;23.344;2022-12-29T01:18:23;55.65;;;27.92;;
20026;SDS011;10174;42.688;23.344;2022-12-29T01:20:50;59.90;;;28.35;;
20026;SDS011;10174;42.688;23.344;2022-12-29T01:23:16;55.05;;;27.85;;
20026;SDS011;10174;42.688;23.344;2022-12-29T01:25:42;62.33;;;29.00;;
20026;SDS011;10174;42.688;23.344;2022-12-29T01:28:07;57.75;;;28.58;;
20026;SDS011;10174;42.688;23.344;2022-12-29T01:30:33;58.92;;;28.33;;
20026;SDS011;10174;42.688;23.344;2022-12-29T01:33:00;52.05;;;26.83;;
20026;SDS011;10174;42.688;23.344;2022-12-29T01:35:25;48.33;;;24.23;;
20026;SDS011;10174;42.688;23.344;2022-12-29T01:37:51;51.95;;;25.48;;
20026;SDS011;10174;42.688;23.344;2022-12-29T01:40:16;52.60;;;24.88;;
20026;SDS011;10174;42.688;23.344;2022-12-29T01:42:42;48.25;;;24.73;;
20026;SDS011;10174;42.688;23.344;2022-12-29T01:45:17;51.13;;;25.50;;
20026;SDS011;10174;42.688;23.344;2022-12-29T01:47:44;46.40;;;23.52;;
20026;SDS011;10174;42.688;23.344;2022-12-29T01:52:55;53.95;;;25.83;;
20026;SDS011;10174;42.688;23.344;2022-12-29T01:55:25;50.90;;;24.08;;
20026;SDS011;10174;42.688;23.344;2022-12-29T01:57:56;47.00;;;23.73;;
20026;SDS011;10174;42.688;23.344;2022-12-29T02:00:26;47.88;;;23.08;;
20026;SDS011;10174;42.688;23.344;2022-12-29T02:02:52;47.78;;;23.30;;
20026;SDS011;10174;42.688;23.344;2022-12-29T02:05:52;46.13;;;23.40;;
20026;SDS011;10174;42.688;23.344;2022-12-29T02:08:10;47.95;;;23.27;;
20026;SDS011;10174;42.688;23.344;2022-12-29T02:10:36;49.30;;;23.88;;
20026;SDS011;10174;42.688;23.344;2022-12-29T02:13:03;47.00;;;23.85;;
20026;SDS011;10174;42.688;23.344;2022-12-29T02:15:34;47.47;;;22.25;;
20026;SDS011;10174;42.688;23.344;2022-12-29T02:18:15;50.85;;;23.42;;
20026;SDS011;10174;42.688;23.344;2022-12-29T02:26:29;46.70;;;23.67;;
20026;SDS011;10174;42.688;23.344;2022-12-29T02:48:15;45.58;;;23.70;;
20026;SDS011;10174;42.688;23.344;2022-12-29T02:51:03;48.20;;;22.58;;
20026;SDS011;10174;42.688;23.344;2022-12-29T02:53:33;49.15;;;24.42;;
20026;SDS011;10174;42.688;23.344;2022-12-29T02:56:19;48.67;;;24.25;;
20026;SDS011;10174;42.688;23.344;2022-12-29T02:58:44;45.55;;;23.33;;
20026;SDS011;10174;42.688;23.344;2022-12-29T03:12:18;52.25;;;25.17;;
20026;SDS011;10174;42.688;23.344;2022-12-29T03:15:21;49.03;;;23.80;;
20026;SDS011;10174;42.688;23.344;2022-12-29T03:18:12;50.92;;;23.20;;
20026;SDS011;10174;42.688;23.344;2022-12-29T03:20:46;50.42;;;25.35;;
20026;SDS011;10174;42.688;23.344;2022-12-29T03:25:46;49.85;;;22.17;;
20026;SDS011;10174;42.688;23.344;2022-12-29T03:28:15;47.35;;;24.02;;
20026;SDS011;10174;42.688;23.344;2022-12-29T03:30:45;47.42;;;22.98;;
20026;SDS011;10174;42.688;23.344;2022-12-29T03:33:12;55.38;;;23.65;;
20026;SDS011;10174;42.688;23.344;2022-12-29T03:35:41;56.40;;;23.85;;
20026;SDS011;10174;42.688;23.344;2022-12-29T03:40:45;50.60;;;25.00;;
20026;SDS011;10174;42.688;23.344;2022-12-29T03:43:13;59.35;;;24.92;;
20026;SDS011;10174;42.688;23.344;2022-12-29T03:45:40;53.60;;;26.55;;
20026;SDS011;10174;42.688;23.344;2022-12-29T03:48:06;56.97;;;27.63;;
20026;SDS011;10174;42.688;23.344;2022-12-29T03:50:31;52.30;;;27.42;;
20026;SDS011;10174;42.688;23.344;2022-12-29T03:52:56;54.95;;;27.67;;
20026;SDS011;10174;42.688;23.344;2022-12-29T03:55:22;59.20;;;27.15;;
20026;SDS011;10174;42.688;23.344;2022-12-29T03:57:47;59.42;;;26.88;;
20026;SDS011;10174;42.688;23.344;2022-12-29T04:00:12;60.60;;;26.98;;
20026;SDS011;10174;42.688;23.344;2022-12-29T04:02:38;51.88;;;27.45;;
20026;SDS011;10174;42.688;23.344;2022-12-29T04:05:04;54.20;;;27.10;;
20026;SDS011;10174;42.688;23.344;2022-12-29T04:07:30;53.38;;;27.05;;
20026;SDS011;10174;42.688;23.344;2022-12-29T04:09:55;68.38;;;28.27;;
20026;SDS011;10174;42.688;23.344;2022-12-29T04:12:21;58.75;;;27.52;;
20026;SDS011;10174;42.688;23.344;2022-12-29T04:14:46;55.97;;;26.58;;
20026;SDS011;10174;42.688;23.344;2022-12-29T04:17:11;67.40;;;26.00;;
20026;SDS011;10174;42.688;23.344;2022-12-29T04:19:37;67.05;;;28.48;;
20026;SDS011;10174;42.688;23.344;2022-12-29T04:22:02;60.13;;;28.25;;
20026;SDS011;10174;42.688;23.344;2022-12-29T04:24:28;55.47;;;28.08;;
20026;SDS011;10174;42.688;23.344;2022-12-29T04:26:53;66.85;;;29.92;;
20026;SDS011;10174;42.688;23.344;2022-12-29T04:29:19;67.13;;;27.65;;
20026;SDS011;10174;42.688;23.344;2022-12-29T04:31:44;63.50;;;29.98;;
20026;SDS011;10174;42.688;23.344;2022-12-29T04:34:09;64.35;;;29.73;;
20026;SDS011;10174;42.688;23.344;2022-12-29T04:36:35;67.18;;;30.50;;
20026;SDS011;10174;42.688;23.344;2022-12-29T04:39:00;66.20;;;29.73;;
20026;SDS011;10174;42.688;23.344;2022-12-29T04:41:26;58.55;;;28.90;;
20026;SDS011;10174;42.688;23.344;2022-12-29T04:43:52;73.90;;;30.52;;
20026;SDS011;10174;42.688;23.344;2022-12-29T04:46:17;64.93;;;30.50;;
20026;SDS011;10174;42.688;23.344;2022-12-29T04:48:43;79.32;;;29.80;;
20026;SDS011;10174;42.688;23.344;2022-12-29T04:51:08;79.70;;;29.38;;
20026;SDS011;10174;42.688;23.344;2022-12-29T04:53:33;72.55;;;28.10;;
20026;SDS011;10174;42.688;23.344;2022-12-29T04:55:59;69.47;;;28.52;;
20026;SDS011;10174;42.688;23.344;2022-12-29T04:58:24;66.57;;;29.60;;
20026;SDS011;10174;42.688;23.344;2022-12-29T05:00:50;64.43;;;28.73;;
20026;SDS011;10174;42.688;23.344;2022-12-29T05:03:16;62.85;;;28.45;;
20026;SDS011;10174;42.688;23.344;2022-12-29T05:05:41;64.78;;;28.25;;
20026;SDS011;10174;42.688;23.344;2022-12-29T05:08:07;65.68;;;29.27;;
20026;SDS011;10174;42.688;23.344;2022-12-29T05:10:32;69.00;;;30.15;;
20026;SDS011;10174;42.688;23.344;2022-12-29T05:12:58;72.60;;;30.45;;
20026;SDS011;10174;42.688;23.344;2022-12-29T05:15:23;68.30;;;30.25;;
20026;SDS011;10174;42.688;23.344;2022-12-29T05:20:38;64.65;;;28.63;;
20026;SDS011;10174;42.688;23.344;2022-12-29T05:23:04;72.10;;;29.17;;
20026;SDS011;10174;42.688;23.344;2022-12-29T05:25:29;66.95;;;27.23;;
20026;SDS011;10174;42.688;23.344;2022-12-29T05:27:55;69.68;;;29.15;;
20026;SDS011;10174;42.688;23.344;2022-12-29T05:30:20;67.07;;;28.33;;
20026;SDS011;10174;42.688;23.344;2022-12-29T05:32:45;71.28;;;30.27;;
20026;SDS011;10174;42.688;23.344;2022-12-29T05:35:11;63.72;;;29.38;;
20026;SDS011;10174;42.688;23.344;2022-12-29T05:37:36;73.00;;;29.08;;
20026;SDS011;10174;42.688;23.344;2022-12-29T05:40:02;61.15;;;28.00;;
20026;SDS011;10174;42.688;23.344;2022-12-29T05:42:27;60.50;;;28.23;;
20026;SDS011;10174;42.688;23.344;2022-12-29T05:44:53;62.67;;;27.52;;
20026;SDS011;10174;42.688;23.344;2022-12-29T05:47:19;61.83;;;28.20;;
20026;SDS011;10174;42.688;23.344;2022-12-29T05:49:44;62.13;;;28.58;;
20026;SDS011;10174;42.688;23.344;2022-12-29T05:55:06;74.55;;;28.63;;
20026;SDS011;10174;42.688;23.344;2022-12-29T05:57:32;71.78;;;28.05;;
20026;SDS011;10174;42.688;23.344;2022-12-29T05:59:57;65.72;;;27.85;;
20026;SDS011;10174;42.688;23.344;2022-12-29T06:02:23;65.43;;;26.35;;
20026;SDS011;10174;42.688;23.344;2022-12-29T06:04:48;63.58;;;27.00;;
20026;SDS011;10174;42.688;23.344;2022-12-29T06:07:13;63.35;;;27.95;;
20026;SDS011;10174;42.688;23.344;2022-12-29T06:09:39;59.45;;;25.92;;
20026;SDS011;10174;42.688;23.344;2022-12-29T06:12:04;59.25;;;27.00;;
20026;SDS011;10174;42.688;23.344;2022-12-29T06:14:30;65.60;;;27.88;;
20026;SDS011;10174;42.688;23.344;2022-12-29T06:16:55;75.88;;;28.77;;
20026;SDS011;10174;42.688;23.344;2022-12-29T06:19:21;64.55;;;26.95;;
20026;SDS011;10174;42.688;23.344;2022-12-29T06:21:46;69.20;;;29.50;;
20026;SDS011;10174;42.688;23.344;2022-12-29T06:24:12;56.13;;;27.35;;
20026;SDS011;10174;42.688;23.344;2022-12-29T06:26:37;61.13;;;27.58;;
20026;SDS011;10174;42.688;23.344;2022-12-29T06:29:02;81.07;;;28.75;;
20026;SDS011;10174;42.688;23.344;2022-12-29T06:31:28;70.40;;;27.60;;
20026;SDS011;10174;42.688;23.344;2022-12-29T06:33:53;62.38;;;27.88;;
20026;SDS011;10174;42.688;23.344;2022-12-29T06:36:19;54.65;;;25.38;;
20026;SDS011;10174;42.688;23.344;2022-12-29T06:38:44;50.58;;;25.60;;
20026;SDS011;10174;42.688;23.344;2022-12-29T06:41:10;57.83;;;26.70;;
20026;SDS011;10174;42.688;23.344;2022-12-29T06:43:35;52.10;;;24.50;;
20026;SDS011;10174;42.688;23.344;2022-12-29T06:46:03;53.05;;;26.13;;
20026;SDS011;10174;42.688;23.344;2022-12-29T06:48:29;55.28;;;26.60;;
20026;SDS011;10174;42.688;23.344;2022-12-29T06:50:55;49.80;;;24.10;;
20026;SDS011;10174;42.688;23.344;2022-12-29T06:53:20;58.92;;;26.55;;
20026;SDS011;10174;42.688;23.344;2022-12-29T06:55:45;56.03;;;25.73;;
20026;SDS011;10174;42.688;23.344;2022-12-29T06:58:11;47.83;;;24.83;;
20026;SDS011;10174;42.688;23.344;2022-12-29T07:00:36;48.75;;;23.98;;
20026;SDS011;10174;42.688;23.344;2022-12-29T07:03:02;48.00;;;23.65;;
20026;SDS011;10174;42.688;23.344;2022-12-29T07:05:27;50.28;;;24.13;;
20026;SDS011;10174;42.688;23.344;2022-12-29T07:07:53;46.97;;;24.15;;
20026;SDS011;10174;42.688;23.344;2022-12-29T07:10:19;59.65;;;26.13;;
20026;SDS011;10174;42.688;23.344;2022-12-29T07:12:45;54.45;;;25.58;;
20026;SDS011;10174;42.688;23.344;2022-12-29T07:15:10;58.30;;;26.95;;
20026;SDS011;10174;42.688;23.344;2022-12-29T07:17:35;59.85;;;28.73;;
20026;SDS011;10174;42.688;23.344;2022-12-29T07:20:01;60.63;;;30.67;;
20026;SDS011;10174;42.688;23.344;2022-12-29T07:22:26;71.38;;;31.65;;
20026;SDS011;10174;42.688;23.344;2022-12-29T07:24:52;71.00;;;33.17;;
20026;SDS011;10174;42.688;23.344;2022-12-29T07:27:17;71.70;;;31.88;;
20026;SDS011;10174;42.688;23.344;2022-12-29T07:29:43;70.70;;;32.00;;
20026;SDS011;10174;42.688;23.344;2022-12-29T07:32:08;68.65;;;32.22;;
20026;SDS011;10174;42.688;23.344;2022-12-29T07:34:33;71.45;;;32.88;;
20026;SDS011;10174;42.688;23.344;2022-12-29T07:36:59;68.47;;;32.70;;
20026;SDS011;10174;42.688;23.344;2022-12-29T07:39:24;76.32;;;32.20;;
20026;SDS011;10174;42.688;23.344;2022-12-29T07:41:50;72.63;;;32.20;;
20026;SDS011;10174;42.688;23.344;2022-12-29T07:44:15;79.35;;;39.05;;
20026;SDS011;10174;42.688;23.344;2022-12-29T07:46:41;71.85;;;33.65;;
20026;SDS011;10174;42.688;23.344;2022-12-29T07:49:06;73.28;;;32.90;;
20026;SDS011;10174;42.688;23.344;2022-12-29T07:51:31;68.20;;;31.35;;
20026;SDS011;10174;42.688;23.344;2022-12-29T07:53:57;69.22;;;31.20;;
20026;SDS011;10174;42.688;23.344;2022-12-29T07:56:25;64.53;;;31.52;;
20026;SDS011;10174;42.688;23.344;2022-12-29T07:58:50;56.50;;;28.70;;
20026;SDS011;10174;42.688;23.344;2022-12-29T08:01:15;61.38;;;29.77;;
20026;SDS011;10174;42.688;23.344;2022-12-29T08:03:41;61.85;;;29.23;;
20026;SDS011;10174;42.688;23.344;2022-12-29T08:06:08;61.83;;;30.52;;
20026;SDS011;10174;42.688;23.344;2022-12-29T08:08:35;57.63;;;29.38;;
20026;SDS011;10174;42.688;23.344;2022-12-29T08:11:00;62.10;;;30.58;;
20026;SDS011;10174;42.688;23.344;2022-12-29T08:13:26;64.72;;;30.98;;
20026;SDS011;10174;42.688;23.344;2022-12-29T08:15:51;66.75;;;31.52;;
20026;SDS011;10174;42.688;23.344;2022-12-29T08:18:17;58.78;;;28.55;;
20026;SDS011;10174;42.688;23.344;2022-12-29T08:20:42;56.80;;;28.42;;
20026;SDS011;10174;42.688;23.344;2022-12-29T08:23:07;55.33;;;27.45;;
20026;SDS011;10174;42.688;23.344;2022-12-29T08:25:33;56.47;;;28.25;;
20026;SDS011;10174;42.688;23.344;2022-12-29T08:27:58;52.15;;;26.67;;
20026;SDS011;10174;42.688;23.344;2022-12-29T08:30:23;57.42;;;27.95;;
20026;SDS011;10174;42.688;23.344;2022-12-29T08:32:49;62.15;;;27.25;;
20026;SDS011;10174;42.688;23.344;2022-12-29T08:35:14;55.50;;;28.60;;
20026;SDS011;10174;42.688;23.344;2022-12-29T08:37:40;58.90;;;28.83;;
20026;SDS011;10174;42.688;23.344;2022-12-29T08:40:05;60.78;;;27.90;;
20026;SDS011;10174;42.688;23.344;2022-12-29T08:42:31;58.03;;;27.48;;
20026;SDS011;10174;42.688;23.344;2022-12-29T08:44:58;61.28;;;31.40;;
20026;SDS011;10174;42.688;23.344;2022-12-29T08:47:24;57.25;;;29.02;;
20026;SDS011;10174;42.688;23.344;2022-12-29T08:49:50;58.08;;;28.40;;
20026;SDS011;10174;42.688;23.344;2022-12-29T08:52:15;55.88;;;27.83;;
20026;SDS011;10174;42.688;23.344;2022-12-29T08:54:41;58.72;;;28.42;;
20026;SDS011;10174;42.688;23.344;2022-12-29T08:57:06;54.80;;;28.00;;
20026;SDS011;10174;42.688;23.344;2022-12-29T08:59:32;57.40;;;26.27;;
20026;SDS011;10174;42.688;23.344;2022-12-29T09:01:57;53.58;;;26.35;;
20026;SDS011;10174;42.688;23.344;2022-12-29T09:04:22;57.95;;;28.13;;
20026;SDS011;10174;42.688;23.344;2022-12-29T09:06:48;58.15;;;26.15;;
20026;SDS011;10174;42.688;23.344;2022-12-29T09:09:14;53.65;;;27.90;;
20026;SDS011;10174;42.688;23.344;2022-12-29T09:11:40;88.15;;;42.42;;
20026;SDS011;10174;42.688;23.344;2022-12-29T09:14:06;62.97;;;28.88;;
20026;SDS011;10174;42.688;23.344;2022-12-29T09:16:33;56.05;;;27.25;;
20026;SDS011;10174;42.688;23.344;2022-12-29T09:18:58;53.55;;;26.98;;
20026;SDS011;10174;42.688;23.344;2022-12-29T09:21:23;59.30;;;27.23;;
20026;SDS011;10174;42.688;23.344;2022-12-29T09:23:49;57.70;;;26.90;;
20026;SDS011;10174;42.688;23.344;2022-12-29T09:26:14;55.70;;;27.58;;
20026;SDS011;10174;42.688;23.344;2022-12-29T09:28:40;61.80;;;26.27;;
20026;SDS011;10174;42.688;23.344;2022-12-29T09:31:05;60.53;;;27.23;;
20026;SDS011;10174;42.688;23.344;2022-12-29T09:33:31;52.17;;;25.17;;
20026;SDS011;10174;42.688;23.344;2022-12-29T09:35:58;56.25;;;25.52;;
20026;SDS011;10174;42.688;23.344;2022-12-29T09:38:25;54.88;;;26.83;;
20026;SDS011;10174;42.688;23.344;2022-12-29T09:40:54;51.65;;;25.20;;
20026;SDS011;10174;42.688;23.344;2022-12-29T09:43:28;53.42;;;26.67;;
20026;SDS011;10174;42.688;23.344;2022-12-29T09:46:22;58.78;;;27.65;;
20026;SDS011;10174;42.688;23.344;2022-12-29T09:48:53;55.30;;;27.92;;
20026;SDS011;10174;42.688;23.344;2022-12-29T09:51:35;54.75;;;27.60;;
20026;SDS011;10174;42.688;23.344;2022-12-29T09:54:04;54.83;;;27.33;;
20026;SDS011;10174;42.688;23.344;2022-12-29T09:56:57;54.67;;;27.48;;
20026;SDS011;10174;42.688;23.344;2022-12-29T09:59:39;59.10;;;26.75;;
20026;SDS011;10174;42.688;23.344;2022-12-29T10:04:47;123.60;;;54.70;;
20026;SDS011;10174;42.688;23.344;2022-12-29T10:08:14;58.53;;;28.08;;
20026;SDS011;10174;42.688;23.344;2022-12-29T10:24:18;64.82;;;27.15;;
20026;SDS011;10174;42.688;23.344;2022-12-29T10:26:46;56.50;;;28.67;;
20026;SDS011;10174;42.688;23.344;2022-12-29T10:29:19;54.17;;;28.08;;
20026;SDS011;10174;42.688;23.344;2022-12-29T10:34:26;57.65;;;29.80;;
20026;SDS011;10174;42.688;23.344;2022-12-29T10:36:59;56.33;;;27.02;;
20026;SDS011;10174;42.688;23.344;2022-12-29T10:39:30;59.17;;;28.23;;
20026;SDS011;10174;42.688;23.344;2022-12-29T10:44:36;51.90;;;26.23;;
20026;SDS011;10174;42.688;23.344;2022-12-29T10:47:05;55.40;;;27.02;;
20026;SDS011;10174;42.688;23.344;2022-12-29T10:49:40;59.60;;;27.63;;
20026;SDS011;10174;42.688;23.344;2022-12-29T10:52:07;56.90;;;27.38;;
20026;SDS011;10174;42.688;23.344;2022-12-29T11:00:18;61.33;;;29.30;;
20026;SDS011;10174;42.688;23.344;2022-12-29T11:05:46;55.60;;;27.67;;
20026;SDS011;10174;42.688;23.344;2022-12-29T11:08:46;55.92;;;27.55;;
20026;SDS011;10174;42.688;23.344;2022-12-29T11:11:28;58.13;;;29.08;;
20026;SDS011;10174;42.688;23.344;2022-12-29T11:14:02;55.28;;;29.05;;
20026;SDS011;10174;42.688;23.344;2022-12-29T11:16:39;54.90;;;29.02;;
20026;SDS011;10174;42.688;23.344;2022-12-29T11:19:09;56.13;;;28.77;;
20026;SDS011;10174;42.688;23.344;2022-12-29T11:21:45;58.17;;;29.77;;
20026;SDS011;10174;42.688;23.344;2022-12-29T11:24:22;54.03;;;27.15;;
20026;SDS011;10174;42.688;23.344;2022-12-29T11:26:55;59.28;;;29.23;;
20026;SDS011;10174;42.688;23.344;2022-12-29T11:29:38;54.92;;;27.92;;
20026;SDS011;10174;42.688;23.344;2022-12-29T11:32:22;49.67;;;25.73;;
20026;SDS011;10174;42.688;23.344;2022-12-29T11:34:49;59.65;;;26.60;;
20026;SDS011;10174;42.688;23.344;2022-12-29T11:39:51;58.20;;;27.58;;
20026;SDS011;10174;42.688;23.344;2022-12-29T11:42:21;61.55;;;28.30;;
20026;SDS011;10174;42.688;23.344;2022-12-29T11:44:49;66.05;;;29.20;;
20026;SDS011;10174;42.688;23.344;2022-12-29T11:47:34;60.55;;;27.55;;
20026;SDS011;10174;42.688;23.344;2022-12-29T11:50:02;84.78;;;41.08;;
20026;SDS011;10174;42.688;23.344;2022-12-29T11:52:32;56.92;;;26.30;;
20026;SDS011;10174;42.688;23.344;2022-12-29T11:55:01;47.58;;;25.35;;
20026;SDS011;10174;42.688;23.344;2022-12-29T11:57:29;49.83;;;24.75;;
20026;SDS011;10174;42.688;23.344;2022-12-29T12:00:00;47.47;;;22.95;;
20026;SDS011;10174;42.688;23.344;2022-12-29T12:05:06;51.25;;;21.08;;
20026;SDS011;10174;42.688;23.344;2022-12-29T12:07:57;51.95;;;22.02;;
20026;SDS011;10174;42.688;23.344;2022-12-29T12:10:32;47.42;;;22.50;;
20026;SDS011;10174;42.688;23.344;2022-12-29T12:15:54;41.95;;;21.35;;
20026;SDS011;10174;42.688;23.344;2022-12-29T12:18:48;41.33;;;22.00;;
20026;SDS011;10174;42.688;23.344;2022-12-29T12:21:14;45.70;;;21.63;;
20026;SDS011;10174;42.688;23.344;2022-12-29T12:35:07;45.35;;;23.85;;
20026;SDS011;10174;42.688;23.344;2022-12-29T12:51:33;51.65;;;23.30;;
20026;SDS011;10174;42.688;23.344;2022-12-29T12:57:15;40.42;;;22.95;;
20026;SDS011;10174;42.688;23.344;2022-12-29T13:05:42;49.17;;;22.70;;
20026;SDS011;10174;42.688;23.344;2022-12-29T13:16:33;44.20;;;21.77;;
20026;SDS011;10174;42.688;23.344;2022-12-29T13:22:09;43.53;;;22.20;;
20026;SDS011;10174;42.688;23.344;2022-12-29T13:27:38;53.00;;;24.08;;
20026;SDS011;10174;42.688;23.344;2022-12-29T13:37:47;59.20;;;25.98;;
20026;SDS011;10174;42.688;23.344;2022-12-29T13:40:17;49.40;;;25.88;;
20026;SDS011;10174;42.688;23.344;2022-12-29T13:42:47;49.78;;;26.38;;
20026;SDS011;10174;42.688;23.344;2022-12-29T13:45:15;57.42;;;26.17;;
20026;SDS011;10174;42.688;23.344;2022-12-29T13:47:48;56.65;;;25.95;;
20026;SDS011;10174;42.688;23.344;2022-12-29T13:50:20;47.55;;;23.13;;
20026;SDS011;10174;42.688;23.344;2022-12-29T13:52:55;51.97;;;26.33;;
20026;SDS011;10174;42.688;23.344;2022-12-29T13:58:25;55.17;;;25.10;;
20026;SDS011;10174;42.688;23.344;2022-12-29T14:03:42;52.92;;;24.38;;
20026;SDS011;10174;42.688;23.344;2022-12-29T14:06:50;55.58;;;25.70;;
20026;SDS011;10174;42.688;23.344;2022-12-29T14:09:03;53.55;;;26.25;;
20026;SDS011;10174;42.688;23.344;2022-12-29T14:14:17;56.40;;;27.40;;
20026;SDS011;10174;42.688;23.344;2022-12-29T14:16:45;61.78;;;28.17;;
20026;SDS011;10174;42.688;23.344;2022-12-29T14:19:13;53.33;;;28.35;;
20026;SDS011;10174;42.688;23.344;2022-12-29T14:21:40;53.45;;;27.15;;
20026;SDS011;10174;42.688;23.344;2022-12-29T14:27:00;66.45;;;28.90;;
20026;SDS011;10174;42.688;23.344;2022-12-29T14:29:46;59.28;;;27.95;;
20026;SDS011;10174;42.688;23.344;2022-12-29T14:34:51;57.78;;;27.10;;
20026;SDS011;10174;42.688;23.344;2022-12-29T14:37:24;61.40;;;29.05;;
20026;SDS011;10174;42.688;23.344;2022-12-29T14:40:01;57.28;;;28.05;;
20026;SDS011;10174;42.688;23.344;2022-12-29T14:42:39;53.10;;;27.55;;
20026;SDS011;10174;42.688;23.344;2022-12-29T14:47:38;60.75;;;27.80;;
20026;SDS011;10174;42.688;23.344;2022-12-29T14:50:51;59.55;;;28.67;;
20026;SDS011;10174;42.688;23.344;2022-12-29T14:53:06;60.65;;;27.55;;
20026;SDS011;10174;42.688;23.344;2022-12-29T14:55:54;62.90;;;28.65;;
20026;SDS011;10174;42.688;23.344;2022-12-29T14:58:24;70.47;;;30.10;;
20026;SDS011;10174;42.688;23.344;2022-12-29T15:00:53;70.53;;;28.70;;
20026;SDS011;10174;42.688;23.344;2022-12-29T15:04:05;62.85;;;29.20;;
20026;SDS011;10174;42.688;23.344;2022-12-29T15:06:14;68.70;;;28.40;;
20026;SDS011;10174;42.688;23.344;2022-12-29T15:08:46;65.63;;;27.08;;
20026;SDS011;10174;42.688;23.344;2022-12-29T15:11:23;64.32;;;27.63;;
20026;SDS011;10174;42.688;23.344;2022-12-29T15:13:55;74.78;;;32.28;;
20026;SDS011;10174;42.688;23.344;2022-12-29T15:19:01;69.65;;;28.67;;
20026;SDS011;10174;42.688;23.344;2022-12-29T15:21:29;73.93;;;27.35;;
20026;SDS011;10174;42.688;23.344;2022-12-29T15:23:56;64.20;;;27.73;;
20026;SDS011;10174;42.688;23.344;2022-12-29T15:26:22;67.80;;;29.40;;
20026;SDS011;10174;42.688;23.344;2022-12-29T15:28:51;75.70;;;29.60;;
20026;SDS011;10174;42.688;23.344;2022-12-29T15:31:18;72.40;;;29.40;;
20026;SDS011;10174;42.688;23.344;2022-12-29T15:33:45;72.40;;;29.42;;
20026;SDS011;10174;42.688;23.344;2022-12-29T15:36:22;69.60;;;30.25;;
20026;SDS011;10174;42.688;23.344;2022-12-29T15:38:50;88.70;;;32.60;;
20026;SDS011;10174;42.688;23.344;2022-12-29T15:41:27;90.53;;;32.50;;
20026;SDS011;10174;42.688;23.344;2022-12-29T15:44:23;97.22;;;34.45;;
20026;SDS011;10174;42.688;23.344;2022-12-29T15:47:15;95.97;;;35.23;;
20026;SDS011;10174;42.688;23.344;2022-12-29T15:49:42;104.97;;;33.78;;
20026;SDS011;10174;42.688;23.344;2022-12-29T15:52:09;97.63;;;34.63;;
20026;SDS011;10174;42.688;23.344;2022-12-29T15:54:35;92.30;;;35.47;;
20026;SDS011;10174;42.688;23.344;2022-12-29T15:57:02;114.20;;;38.10;;
20026;SDS011;10174;42.688;23.344;2022-12-29T15:59:32;89.38;;;36.67;;
20026;SDS011;10174;42.688;23.344;2022-12-29T16:01:59;95.03;;;35.83;;
20026;SDS011;10174;42.688;23.344;2022-12-29T16:04:28;89.95;;;37.63;;
20026;SDS011;10174;42.688;23.344;2022-12-29T16:09:29;101.65;;;35.58;;
20026;SDS011;10174;42.688;23.344;2022-12-29T16:11:56;101.28;;;38.65;;
20026;SDS011;10174;42.688;23.344;2022-12-29T16:14:27;93.65;;;33.70;;
20026;SDS011;10174;42.688;23.344;2022-12-29T16:17:00;84.40;;;33.03;;
20026;SDS011;10174;42.688;23.344;2022-12-29T16:19:49;80.82;;;32.42;;
20026;SDS011;10174;42.688;23.344;2022-12-29T16:22:58;80.13;;;33.63;;
20026;SDS011;10174;42.688;23.344;2022-12-29T16:25:12;79.97;;;32.83;;
20026;SDS011;10174;42.688;23.344;2022-12-29T16:27:41;86.25;;;35.38;;
20026;SDS011;10174;42.688;23.344;2022-12-29T16:30:24;84.10;;;35.17;;
20026;SDS011;10174;42.688;23.344;2022-12-29T16:32:53;83.50;;;35.58;;
20026;SDS011;10174;42.688;23.344;2022-12-29T16:35:21;98.72;;;37.92;;
20026;SDS011;10174;42.688;23.344;2022-12-29T16:43:23;104.82;;;39.55;;
20026;SDS011;10174;42.688;23.344;2022-12-29T16:50:41;112.18;;;39.15;;
20026;SDS011;10174;42.688;23.344;2022-12-29T16:53:21;108.43;;;39.38;;
20026;SDS011;10174;42.688;23.344;2022-12-29T16:55:51;112.38;;;41.50;;
20026;SDS011;10174;42.688;23.344;2022-12-29T16:58:20;88.68;;;39.22;;
20026;SDS011;10174;42.688;23.344;2022-12-29T17:00:47;106.00;;;40.28;;
20026;SDS011;10174;42.688;23.344;2022-12-29T17:03:13;102.22;;;41.58;;
20026;SDS011;10174;42.688;23.344;2022-12-29T17:05:40;113.25;;;41.88;;
20026;SDS011;10174;42.688;23.344;2022-12-29T17:08:19;124.00;;;43.53;;
20026;SDS011;10174;42.688;23.344;2022-12-29T17:10:52;123.68;;;42.92;;
20026;SDS011;10174;42.688;23.344;2022-12-29T17:13:39;101.93;;;43.10;;
20026;SDS011;10174;42.688;23.344;2022-12-29T17:16:05;108.53;;;41.10;;
20026;SDS011;10174;42.688;23.344;2022-12-29T17:18:33;103.25;;;43.45;;
20026;SDS011;10174;42.688;23.344;2022-12-29T17:20:59;104.03;;;43.60;;
20026;SDS011;10174;42.688;23.344;2022-12-29T17:23:25;128.52;;;51.20;;